Wrentham, Canada
Current Conditions -  °F | °C
As of 7:00 AM on Thursday 23 Oct 2014 (Local Time) from CYQL Reporting Station
Broken Clouds Broken Clouds  
Wind Chill: 52°   Ceiling: 22000
Heat Index: 52°   Visibility: 25mi
Dew Point: 37°   Wind: 13mph
Humidity: 58%   Direction: 230°SW
Pressure: 29.64"   Gusts: NA
Location:  49.52°N, 112.18°W
Report Text: CYQL 231300Z 23011KT 25SM BKN220 11/03 A2964 RMK CI7 SLP045 DENSITY ALT 3500FT
Loading
Personal Weather Stations






























Interactive Weather Map
Tropical Storm Tracking
New forecast layout! Learn more

10-Day Weather Forecast

Advertisements
Track Severe Weather on mobile